createdAt,value
2018-07-23T00:01:19.775Z,17.30
2018-07-23T00:03:50.687Z,17.28
2018-07-23T00:06:20.910Z,17.29
2018-07-23T00:08:55.347Z,17.26
2018-07-23T00:11:26.539Z,17.27
2018-07-23T00:13:57.395Z,17.27
2018-07-23T00:16:30.071Z,17.22
2018-07-23T00:19:01.314Z,17.21
2018-07-23T00:21:32.217Z,17.21
2018-07-23T00:24:03.727Z,17.20
2018-07-23T00:26:38.427Z,17.16
2018-07-23T00:29:09.037Z,17.15
2018-07-23T00:31:40.303Z,17.17
2018-07-23T00:34:10.786Z,17.18
2018-07-23T00:36:41.552Z,17.16
2018-07-23T00:39:11.774Z,17.13
2018-07-23T00:41:46.392Z,17.12
2018-07-23T00:44:17.490Z,17.10
2018-07-23T00:46:53.211Z,17.05
2018-07-23T00:49:24.495Z,17.04
2018-07-23T00:51:55.573Z,17.05
2018-07-23T00:54:25.910Z,17.05
2018-07-23T00:56:55.993Z,17.02
2018-07-23T00:59:27.109Z,16.97
2018-07-23T01:02:00.064Z,16.91
2018-07-23T01:04:32.892Z,16.91
2018-07-23T01:07:04.511Z,16.91
2018-07-23T01:09:35.359Z,16.88
2018-07-23T01:12:07.557Z,16.88
2018-07-23T01:14:38.527Z,16.86
2018-07-23T01:17:10.394Z,16.88
2018-07-23T01:19:43.423Z,16.88
2018-07-23T01:22:15.977Z,16.83
2018-07-23T01:24:46.671Z,16.80
2018-07-23T01:27:16.887Z,16.79
2018-07-23T01:29:47.024Z,16.79
2018-07-23T01:32:18.943Z,16.77
2018-07-23T01:34:49.209Z,16.78
2018-07-23T01:37:24.452Z,16.81
2018-07-23T01:39:55.107Z,16.84
2018-07-23T01:42:25.514Z,16.80
2018-07-23T01:44:57.017Z,16.76
2018-07-23T01:47:27.761Z,16.74
2018-07-23T01:49:58.621Z,16.74
2018-07-23T01:52:29.358Z,16.77
2018-07-23T01:54:59.486Z,16.76
2018-07-23T01:57:32.766Z,16.77
2018-07-23T02:00:05.557Z,16.78
2018-07-23T02:02:36.746Z,16.78
2018-07-23T02:05:07.381Z,16.76
2018-07-23T02:07:37.672Z,16.74
2018-07-23T02:10:07.911Z,16.72
2018-07-23T02:12:38.411Z,16.69
2018-07-23T02:15:08.658Z,16.68
2018-07-23T02:17:39.497Z,16.62
2018-07-23T02:20:10.001Z,16.54
2018-07-23T02:22:40.186Z,16.48
2018-07-23T02:25:10.488Z,16.44
2018-07-23T02:27:41.051Z,16.42
2018-07-23T02:30:11.444Z,16.38
2018-07-23T02:32:41.688Z,16.33
2018-07-23T02:35:16.052Z,16.29
2018-07-23T02:37:46.641Z,16.21
2018-07-23T02:40:16.877Z,16.16
2018-07-23T02:42:49.682Z,16.08
2018-07-23T02:45:19.806Z,16.00
2018-07-23T02:47:51.003Z,15.93
2018-07-23T02:50:22.583Z,15.88
2018-07-23T02:52:54.632Z,15.85
2018-07-23T02:55:24.887Z,15.86
2018-07-23T02:57:55.983Z,15.83
2018-07-23T03:00:29.863Z,15.82
2018-07-23T03:03:00.164Z,15.84
2018-07-23T03:05:31.273Z,15.75
2018-07-23T03:08:02.771Z,15.70
2018-07-23T03:10:33.032Z,15.66
2018-07-23T03:13:03.256Z,15.62
2018-07-23T03:15:34.028Z,15.59
2018-07-23T03:18:06.656Z,15.61
2018-07-23T03:20:37.490Z,15.61
2018-07-23T03:23:07.803Z,15.60
2018-07-23T03:25:39.159Z,15.59
2018-07-23T03:28:09.426Z,15.56
2018-07-23T03:30:39.702Z,15.57
2018-07-23T03:33:09.843Z,15.59
2018-07-23T03:35:40.091Z,15.59
2018-07-23T03:38:10.417Z,15.59
2018-07-23T03:40:41.292Z,15.57
2018-07-23T03:43:11.925Z,15.52
2018-07-23T03:45:43.168Z,15.48
2018-07-23T03:48:19.142Z,15.49
2018-07-23T03:50:49.401Z,15.46
2018-07-23T03:53:19.562Z,15.49
2018-07-23T03:55:50.440Z,15.48
2018-07-23T03:58:20.614Z,15.46
2018-07-23T04:00:50.818Z,15.47
2018-07-23T04:03:21.224Z,15.47
2018-07-23T04:05:55.209Z,15.48
2018-07-23T04:08:25.454Z,15.48
2018-07-23T04:10:56.520Z,15.49
2018-07-23T04:13:26.945Z,15.51
2018-07-23T04:15:57.149Z,15.49
2018-07-23T04:18:27.269Z,15.51
2018-07-23T04:20:58.455Z,15.54
2018-07-23T04:23:29.263Z,15.57
2018-07-23T04:25:59.362Z,15.57
2018-07-23T04:28:29.534Z,15.61
2018-07-23T04:30:59.737Z,15.64
2018-07-23T04:33:30.463Z,15.67
2018-07-23T04:36:00.929Z,15.73
2018-07-23T04:38:33.792Z,15.75
2018-07-23T04:41:04.312Z,15.80
2018-07-23T04:43:34.702Z,15.85
2018-07-23T04:46:06.906Z,15.90
2018-07-23T04:48:37.302Z,15.98
2018-07-23T04:51:08.092Z,16.03
2018-07-23T04:53:38.272Z,16.11
2018-07-23T04:56:08.601Z,16.16
2018-07-23T04:58:39.599Z,16.23
2018-07-23T05:01:09.874Z,16.30
2018-07-23T05:03:40.706Z,16.37
2018-07-23T05:06:16.230Z,16.46
2018-07-23T05:08:46.522Z,16.51
2018-07-23T05:11:16.966Z,16.57
2018-07-23T05:13:49.714Z,16.65
2018-07-23T05:16:20.375Z,16.71
2018-07-23T05:18:50.551Z,16.74
2018-07-23T05:21:21.788Z,16.79
2018-07-23T05:23:52.038Z,16.86
2018-07-23T05:26:23.446Z,16.91
2018-07-23T05:28:53.752Z,16.98
2018-07-23T05:31:23.926Z,17.06
2018-07-23T05:33:54.804Z,17.11
2018-07-23T05:36:24.956Z,17.17
2018-07-23T05:38:55.131Z,17.26
2018-07-23T05:41:25.402Z,17.36
2018-07-23T05:43:55.930Z,17.44
2018-07-23T05:46:26.110Z,17.51
2018-07-23T05:48:58.417Z,17.60
2018-07-23T05:51:28.587Z,17.64
2018-07-23T05:53:58.762Z,17.67
2018-07-23T05:56:28.923Z,17.70
2018-07-23T05:58:59.421Z,17.72
2018-07-23T06:01:31.208Z,17.77
2018-07-23T06:04:04.783Z,17.79
2018-07-23T06:06:35.443Z,17.85
2018-07-23T06:09:09.376Z,17.90
2018-07-23T06:11:41.061Z,17.96
2018-07-23T06:14:12.469Z,18.00
2018-07-23T06:16:49.605Z,18.10
2018-07-23T06:19:21.447Z,18.09
2018-07-23T06:21:51.585Z,18.11
2018-07-23T06:24:25.714Z,18.16
2018-07-23T06:26:56.521Z,18.23
2018-07-23T06:29:28.066Z,18.24
2018-07-23T06:31:58.671Z,18.24
2018-07-23T06:34:29.590Z,18.25
2018-07-23T06:36:59.758Z,18.32
2018-07-23T06:39:29.980Z,18.52
2018-07-23T06:42:01.211Z,18.78
2018-07-23T06:44:31.664Z,18.98
2018-07-23T06:47:02.242Z,18.99
2018-07-23T06:49:32.493Z,19.19
2018-07-23T06:52:07.893Z,19.43
2018-07-23T06:54:38.277Z,19.60
2018-07-23T06:57:09.813Z,19.77
2018-07-23T06:59:40.734Z,19.98
2018-07-23T07:02:11.099Z,20.11
2018-07-23T07:04:41.765Z,20.26
2018-07-23T07:07:14.397Z,20.47
2018-07-23T07:09:46.027Z,20.68
2018-07-23T07:12:16.235Z,20.67
2018-07-23T07:14:47.686Z,20.78
2018-07-23T07:17:20.637Z,21.01
2018-07-23T07:19:51.650Z,21.23
2018-07-23T07:22:21.829Z,21.29
2018-07-23T07:24:52.545Z,21.44
2018-07-23T07:27:25.142Z,21.62
2018-07-23T07:29:57.141Z,21.71
2018-07-23T07:32:28.357Z,21.78
2018-07-23T07:34:58.438Z,21.77
2018-07-23T07:37:28.856Z,21.72
2018-07-23T07:40:00.509Z,21.83
2018-07-23T07:42:31.298Z,22.05
2018-07-23T07:45:03.782Z,22.09
2018-07-23T07:47:36.972Z,21.96
2018-07-23T07:50:07.730Z,22.10
2018-07-23T07:52:38.391Z,22.17
2018-07-23T07:55:09.046Z,22.25
2018-07-23T07:57:39.341Z,22.40
2018-07-23T08:00:10.217Z,22.47
2018-07-23T08:02:41.601Z,22.48
2018-07-23T08:05:11.913Z,22.51
2018-07-23T08:07:43.080Z,22.44
2018-07-23T08:10:17.388Z,22.42
2018-07-23T08:12:49.575Z,22.42
2018-07-23T08:15:25.050Z,22.53
2018-07-23T08:17:58.919Z,22.64
2018-07-23T08:20:29.312Z,22.88
2018-07-23T08:23:00.240Z,23.07
2018-07-23T08:25:30.777Z,23.11
2018-07-23T08:28:01.478Z,23.18
2018-07-23T08:30:34.786Z,23.17
2018-07-23T08:33:07.494Z,23.34
2018-07-23T08:35:45.219Z,23.11
2018-07-23T08:38:18.517Z,23.12
2018-07-23T08:40:56.093Z,23.26
2018-07-23T08:43:29.416Z,23.36
2018-07-23T08:46:01.011Z,23.30
2018-07-23T08:48:31.659Z,23.20
2018-07-23T08:51:08.811Z,23.30
2018-07-23T08:53:41.223Z,23.24
2018-07-23T08:56:18.551Z,23.26
2018-07-23T08:58:50.466Z,23.37
2018-07-23T09:01:21.460Z,23.36
2018-07-23T09:03:52.465Z,23.42
2018-07-23T09:06:24.981Z,23.51
2018-07-23T09:08:57.592Z,23.57
2018-07-23T09:11:28.758Z,23.77
2018-07-23T09:13:59.365Z,23.84
2018-07-23T09:16:32.271Z,23.92
2018-07-23T09:19:08.364Z,23.98
2018-07-23T09:21:38.541Z,23.88
2018-07-23T09:24:13.693Z,23.73
2018-07-23T09:26:44.964Z,23.73
2018-07-23T09:29:15.996Z,23.82
2018-07-23T09:31:48.609Z,23.89
2018-07-23T09:34:19.483Z,23.72
2018-07-23T09:36:49.648Z,23.51
2018-07-23T09:39:21.060Z,23.53
2018-07-23T09:41:51.226Z,23.58
2018-07-23T09:44:23.107Z,23.66
2018-07-23T09:46:55.284Z,23.80
2018-07-23T09:49:25.496Z,23.94
2018-07-23T09:51:56.495Z,23.86
2018-07-23T09:54:27.231Z,23.88
2018-07-23T09:56:57.347Z,23.97
2018-07-23T09:59:27.567Z,24.02
2018-07-23T10:02:00.888Z,24.00
2018-07-23T10:04:37.602Z,24.08
2018-07-23T10:07:07.734Z,24.28
2018-07-23T10:09:37.940Z,24.37
2018-07-23T10:12:09.712Z,24.38
2018-07-23T10:14:40.253Z,24.54
2018-07-23T10:17:10.977Z,24.64
2018-07-23T10:19:41.177Z,24.63
2018-07-23T10:22:11.939Z,24.61
2018-07-23T10:24:43.993Z,24.45
2018-07-23T10:27:15.223Z,24.30
2018-07-23T10:29:46.282Z,24.24
2018-07-23T10:32:18.154Z,24.21
2018-07-23T10:34:48.639Z,24.05
2018-07-23T10:37:19.816Z,24.10
2018-07-23T10:39:52.078Z,24.33
2018-07-23T10:42:23.263Z,24.57
2018-07-23T10:44:54.515Z,24.53
2018-07-23T10:47:25.986Z,24.57
2018-07-23T10:50:00.532Z,24.84
2018-07-23T10:52:30.998Z,25.03
2018-07-23T10:55:02.431Z,24.98
2018-07-23T10:57:33.588Z,24.96
2018-07-23T11:00:04.265Z,24.78
2018-07-23T11:02:41.841Z,24.74
2018-07-23T11:05:13.518Z,24.81
2018-07-23T11:08:10.754Z,24.99
2018-07-23T11:13:40.047Z,25.28
2018-07-23T11:16:12.267Z,25.21
2018-07-23T11:18:42.664Z,24.97
2018-07-23T11:21:13.593Z,24.74
2018-07-23T11:23:43.818Z,24.63
2018-07-23T11:26:15.558Z,24.66
2018-07-23T11:28:46.378Z,24.97
2018-07-23T11:31:17.046Z,25.31
2018-07-23T11:33:48.469Z,25.26
2018-07-23T11:36:19.134Z,25.48
2018-07-23T11:38:53.361Z,25.57
2018-07-23T11:41:26.980Z,25.87
2018-07-23T11:43:57.734Z,25.96
2018-07-23T11:46:28.882Z,25.65
2018-07-23T11:48:59.474Z,25.47
2018-07-23T11:51:33.381Z,25.33
2018-07-23T11:54:04.523Z,25.17
2018-07-23T11:56:37.015Z,25.19
2018-07-23T11:59:08.493Z,25.30
2018-07-23T12:01:38.901Z,25.49
2018-07-23T12:04:12.494Z,25.57
2018-07-23T12:06:43.486Z,25.92
2018-07-23T12:09:14.710Z,26.05
2018-07-23T12:11:46.441Z,26.02
2018-07-23T12:14:18.439Z,26.09
2018-07-23T12:16:50.792Z,26.12
2018-07-23T12:19:31.289Z,26.42
2018-07-23T12:22:05.300Z,26.75
2018-07-23T12:24:39.001Z,26.66
2018-07-23T12:27:10.038Z,26.34
2018-07-23T12:29:40.196Z,26.25
2018-07-23T12:32:12.996Z,26.30
2018-07-23T12:34:45.761Z,26.29
2018-07-23T12:37:16.635Z,26.51
2018-07-23T12:39:55.434Z,26.68
2018-07-23T12:42:26.529Z,26.54
2018-07-23T12:44:57.518Z,26.38
2018-07-23T12:47:32.406Z,26.16
2018-07-23T12:50:02.957Z,26.17
2018-07-23T12:52:38.741Z,26.28
2018-07-23T12:55:13.309Z,26.43
2018-07-23T12:57:47.799Z,26.35
2018-07-23T13:00:18.679Z,26.46
2018-07-23T13:02:50.190Z,26.43
2018-07-23T13:05:24.303Z,26.34
2018-07-23T13:07:55.441Z,26.09
2018-07-23T13:10:27.569Z,25.85
2018-07-23T13:12:59.126Z,25.80
2018-07-23T13:15:31.340Z,25.98
2018-07-23T13:18:04.516Z,26.20
2018-07-23T13:20:35.479Z,26.34
2018-07-23T13:23:07.622Z,26.55
2018-07-23T13:25:40.113Z,26.76
2018-07-23T13:28:11.836Z,26.99
2018-07-23T13:30:50.663Z,26.90
2018-07-23T13:33:46.754Z,26.86
2018-07-23T13:36:17.861Z,26.56
2018-07-23T13:38:51.574Z,26.41
2018-07-23T13:41:22.715Z,26.19
2018-07-23T13:43:53.589Z,26.02
2018-07-23T13:46:27.701Z,26.09
2018-07-23T13:49:01.534Z,26.29
2018-07-23T13:51:36.231Z,26.48
2018-07-23T13:54:14.611Z,26.58
2018-07-23T13:56:47.096Z,26.68
2018-07-23T13:59:17.335Z,26.81
2018-07-23T14:01:47.811Z,26.96
2018-07-23T14:04:19.676Z,27.22
2018-07-23T14:06:50.567Z,27.54
2018-07-23T14:09:21.238Z,27.91
2018-07-23T14:11:52.135Z,28.04
2018-07-23T14:14:23.329Z,28.29
2018-07-23T14:16:53.693Z,28.49
2018-07-23T14:19:26.934Z,28.25
2018-07-23T14:22:01.964Z,27.94
2018-07-23T14:24:33.384Z,27.48
2018-07-23T14:27:04.280Z,27.31
2018-07-23T14:29:35.034Z,27.37
2018-07-23T14:32:07.840Z,27.30
2018-07-23T14:34:39.234Z,27.45
2018-07-23T14:37:10.145Z,27.78
2018-07-23T14:39:40.380Z,28.23
2018-07-23T14:42:10.607Z,28.58
2018-07-23T14:44:42.252Z,28.81
2018-07-23T14:47:14.031Z,28.76
2018-07-23T14:49:44.275Z,28.67
2018-07-23T14:52:17.429Z,28.30
2018-07-23T14:54:47.631Z,28.00
2018-07-23T14:57:17.868Z,27.95
2018-07-23T14:59:51.605Z,27.70
2018-07-23T15:02:22.838Z,27.42
2018-07-23T15:04:53.558Z,27.49
2018-07-23T15:07:25.194Z,27.68
2018-07-23T15:09:56.141Z,27.70
2018-07-23T15:12:27.533Z,27.69
2018-07-23T15:14:59.278Z,27.50
2018-07-23T15:17:39.301Z,27.33
2018-07-23T15:20:12.687Z,27.13
2018-07-23T15:22:43.941Z,27.41
2018-07-23T15:25:15.504Z,27.46
2018-07-23T15:27:46.396Z,27.57
2018-07-23T15:30:16.784Z,27.57
2018-07-23T15:32:49.090Z,27.72
2018-07-23T15:35:19.926Z,28.02
2018-07-23T15:37:50.439Z,28.40
2018-07-23T15:40:21.467Z,28.38
2018-07-23T15:43:04.881Z,28.52
2018-07-23T15:45:38.809Z,28.85
2018-07-23T15:48:09.598Z,28.78
2018-07-23T15:50:44.923Z,29.08
2018-07-23T15:53:17.285Z,28.97
2018-07-23T15:55:49.573Z,29.02
2018-07-23T15:58:21.773Z,28.78
2018-07-23T16:00:52.435Z,28.98
2018-07-23T16:03:22.952Z,29.01
2018-07-23T16:05:54.588Z,29.06
2018-07-23T16:08:25.217Z,28.91
2018-07-23T16:10:55.632Z,29.05
2018-07-23T16:13:26.963Z,29.18
2018-07-23T16:15:57.931Z,29.10
2018-07-23T16:18:29.933Z,29.14
2018-07-23T16:21:01.340Z,28.80
2018-07-23T16:23:33.504Z,28.79
2018-07-23T16:26:05.273Z,29.03
2018-07-23T16:28:35.491Z,29.19
2018-07-23T16:31:12.436Z,29.03
2018-07-23T16:33:42.563Z,29.17
2018-07-23T16:36:13.484Z,29.25
2018-07-23T16:38:46.366Z,29.18
2018-07-23T16:41:20.871Z,29.24
2018-07-23T16:43:55.530Z,29.32
2018-07-23T16:46:27.000Z,29.20
2018-07-23T16:48:59.740Z,29.19
2018-07-23T16:51:30.190Z,29.17
2018-07-23T16:54:02.424Z,29.20
2018-07-23T16:56:34.640Z,29.04
2018-07-23T16:59:06.361Z,29.19
2018-07-23T17:01:39.052Z,29.11
2018-07-23T17:04:13.150Z,29.14
2018-07-23T17:06:43.720Z,29.06
2018-07-23T17:09:14.332Z,28.64
2018-07-23T17:11:45.644Z,28.22
2018-07-23T17:14:17.415Z,27.88
2018-07-23T17:16:47.837Z,27.83
2018-07-23T17:19:20.471Z,27.65
2018-07-23T17:21:56.819Z,27.39
2018-07-23T17:24:29.475Z,27.27
2018-07-23T17:27:03.704Z,27.08
2018-07-23T17:29:34.579Z,26.96
2018-07-23T17:32:08.152Z,26.83
2018-07-23T17:34:40.463Z,26.64
2018-07-23T17:37:11.891Z,26.55
2018-07-23T17:39:44.349Z,26.37
2018-07-23T17:42:14.850Z,26.20
2018-07-23T17:44:46.639Z,26.22
2018-07-23T17:47:18.314Z,26.12
2018-07-23T17:49:49.427Z,26.03
2018-07-23T17:52:19.595Z,25.94
2018-07-23T17:54:50.240Z,25.90
2018-07-23T17:57:23.674Z,25.87
2018-07-23T17:59:55.890Z,25.76
2018-07-23T18:02:30.905Z,25.65
2018-07-23T18:05:01.748Z,25.48
2018-07-23T18:07:33.707Z,25.33
2018-07-23T18:10:04.583Z,25.20
2018-07-23T18:12:35.655Z,25.05
2018-07-23T18:15:06.482Z,24.97
2018-07-23T18:17:48.793Z,24.89
2018-07-23T18:20:23.589Z,24.83
2018-07-23T18:22:55.475Z,24.68
2018-07-23T18:25:26.692Z,24.49
2018-07-23T18:27:58.037Z,24.40
2018-07-23T18:30:28.314Z,24.36
2018-07-23T18:33:01.392Z,24.32
2018-07-23T18:35:35.534Z,24.22
2018-07-23T18:38:06.583Z,24.12
2018-07-23T18:40:38.156Z,23.94
2018-07-23T18:43:10.302Z,23.88
2018-07-23T18:45:44.469Z,23.73
2018-07-23T18:48:32.395Z,23.55
2018-07-23T18:51:03.838Z,23.38
2018-07-23T18:53:36.680Z,23.22
2018-07-23T18:56:08.426Z,23.10
2018-07-23T18:58:40.263Z,22.98
2018-07-23T19:01:14.075Z,22.84
2018-07-23T19:09:35.622Z,22.71
2018-07-23T19:12:07.438Z,22.27
2018-07-23T19:14:39.599Z,22.11
2018-07-23T19:17:12.619Z,22.01
2018-07-23T19:19:43.380Z,21.90
2018-07-23T19:22:14.938Z,21.76
2018-07-23T19:24:57.419Z,21.67
2018-07-23T19:27:30.604Z,21.55
2018-07-23T19:30:05.426Z,21.41
2018-07-23T19:32:37.176Z,21.34
2018-07-23T19:35:11.276Z,21.30
2018-07-23T19:37:43.064Z,21.26
2018-07-23T19:40:20.257Z,21.12
2018-07-23T19:42:51.800Z,20.97
2018-07-23T19:45:26.332Z,20.84
2018-07-23T19:47:57.657Z,20.69
2018-07-23T19:50:37.389Z,20.63
2018-07-23T19:53:07.985Z,20.56
2018-07-23T19:55:45.688Z,20.52
2018-07-23T19:58:16.855Z,20.41
2018-07-23T20:00:50.409Z,20.31
2018-07-23T20:03:23.052Z,20.24
2018-07-23T20:05:56.427Z,20.14
2018-07-23T20:08:32.838Z,20.09
2018-07-23T20:11:03.747Z,20.03
2018-07-23T20:13:37.411Z,19.92
2018-07-23T20:16:16.686Z,19.83
2018-07-23T20:18:48.837Z,19.73
2018-07-23T20:21:23.223Z,19.61
2018-07-23T20:24:06.435Z,19.56
2018-07-23T20:26:39.686Z,19.51
2018-07-23T20:29:10.405Z,19.42
2018-07-23T20:31:44.034Z,19.24
2018-07-23T20:34:17.599Z,19.15
2018-07-23T20:36:47.668Z,19.08
2018-07-23T20:39:25.639Z,19.09
2018-07-23T20:41:56.771Z,19.05
2018-07-23T20:44:28.845Z,18.95
2018-07-23T20:47:01.015Z,18.92
2018-07-23T20:49:33.820Z,18.84
2018-07-23T20:52:11.616Z,18.78
2018-07-23T20:54:45.030Z,18.76
2018-07-23T20:57:16.400Z,18.63
2018-07-23T20:59:54.707Z,18.57
2018-07-23T21:02:28.128Z,18.48
2018-07-23T21:05:00.871Z,18.45
2018-07-23T21:07:35.105Z,18.42
2018-07-23T21:10:09.985Z,18.38
2018-07-23T21:12:44.099Z,18.35
2018-07-23T21:15:16.532Z,18.28
2018-07-23T21:17:48.255Z,18.24
2018-07-23T21:20:18.460Z,18.20
2018-07-23T21:22:49.695Z,18.16
2018-07-23T21:25:20.237Z,18.15
2018-07-23T21:27:51.448Z,18.11
2018-07-23T21:30:22.548Z,18.11
2018-07-23T21:32:53.254Z,18.07
2018-07-23T21:35:26.467Z,18.06
2018-07-23T21:37:56.556Z,18.01
2018-07-23T21:40:27.406Z,17.96
2018-07-23T21:42:57.903Z,17.88
2018-07-23T21:45:30.319Z,17.85
2018-07-23T21:48:03.300Z,17.76
2018-07-23T21:50:34.307Z,17.72
2018-07-23T21:53:05.282Z,17.61
2018-07-23T21:55:39.196Z,17.60
2018-07-23T21:58:10.316Z,17.57
2018-07-23T22:00:43.720Z,17.57
2018-07-23T22:03:14.485Z,17.51
2018-07-23T22:05:46.691Z,17.43
2018-07-23T22:08:18.208Z,17.39
2018-07-23T22:10:48.745Z,17.36
2018-07-23T22:13:20.974Z,17.32
2018-07-23T22:15:53.792Z,17.24
2018-07-23T22:18:24.956Z,17.21
2018-07-23T22:20:56.970Z,17.17
2018-07-23T22:23:27.675Z,17.10
2018-07-23T22:25:57.762Z,17.10
2018-07-23T22:28:29.531Z,17.08
2018-07-23T22:31:00.519Z,17.08
2018-07-23T22:33:33.143Z,17.03
2018-07-23T22:36:03.872Z,17.00
2018-07-23T22:38:36.059Z,16.99
2018-07-23T22:41:06.249Z,16.92
2018-07-23T22:43:38.460Z,16.86
2018-07-23T22:46:12.121Z,16.85
2018-07-23T22:48:44.457Z,16.85
2018-07-23T22:51:15.549Z,16.82
2018-07-23T22:53:46.356Z,16.82
2018-07-23T22:56:17.459Z,16.79
2018-07-23T22:58:48.372Z,16.72
2018-07-23T23:01:18.994Z,16.65
2018-07-23T23:03:52.367Z,16.64
2018-07-23T23:06:27.282Z,16.54
2018-07-23T23:08:58.405Z,16.45
2018-07-23T23:11:29.784Z,16.47
2018-07-23T23:14:00.223Z,16.49
2018-07-23T23:16:31.400Z,16.49
2018-07-23T23:19:03.068Z,16.50
2018-07-23T23:21:36.941Z,16.52
2018-07-23T23:24:07.693Z,16.51
2018-07-23T23:26:38.574Z,16.47
2018-07-23T23:29:09.219Z,16.43
2018-07-23T23:31:39.821Z,16.44
2018-07-23T23:34:09.911Z,16.42
2018-07-23T23:36:40.095Z,16.33
2018-07-23T23:39:12.227Z,16.27
2018-07-23T23:41:42.349Z,16.21
2018-07-23T23:44:12.424Z,16.17
2018-07-23T23:46:42.583Z,16.18
2018-07-23T23:49:14.494Z,16.21
2018-07-23T23:51:44.633Z,16.23
2018-07-23T23:54:14.704Z,16.19
2018-07-23T23:56:44.900Z,16.14
2018-07-23T23:59:15.417Z,16.09
